sensor_id;sensor_type;location;lat;lon;timestamp;P1;durP1;ratioP1;P2;durP2;ratioP2
3747;SDS011;1889;50.058;8.688;2022-08-27T00:02:20;11.50;;;9.23;;
3747;SDS011;1889;50.058;8.688;2022-08-27T00:04:49;11.50;;;9.13;;
3747;SDS011;1889;50.058;8.688;2022-08-27T00:07:18;10.63;;;8.53;;
3747;SDS011;1889;50.058;8.688;2022-08-27T00:09:47;11.67;;;8.63;;
3747;SDS011;1889;50.058;8.688;2022-08-27T00:12:16;12.67;;;8.93;;
3747;SDS011;1889;50.058;8.688;2022-08-27T00:14:45;11.67;;;9.20;;
3747;SDS011;1889;50.058;8.688;2022-08-27T00:17:15;14.27;;;9.40;;
3747;SDS011;1889;50.058;8.688;2022-08-27T00:19:44;12.37;;;9.50;;
3747;SDS011;1889;50.058;8.688;2022-08-27T00:22:13;11.07;;;9.37;;
3747;SDS011;1889;50.058;8.688;2022-08-27T00:24:42;10.47;;;9.40;;
3747;SDS011;1889;50.058;8.688;2022-08-27T00:27:11;12.83;;;8.80;;
3747;SDS011;1889;50.058;8.688;2022-08-27T00:29:40;11.23;;;8.07;;
3747;SDS011;1889;50.058;8.688;2022-08-27T00:32:09;11.57;;;8.87;;
3747;SDS011;1889;50.058;8.688;2022-08-27T00:34:38;12.03;;;9.33;;
3747;SDS011;1889;50.058;8.688;2022-08-27T00:37:07;11.17;;;8.67;;
3747;SDS011;1889;50.058;8.688;2022-08-27T00:39:36;9.90;;;8.83;;
3747;SDS011;1889;50.058;8.688;2022-08-27T00:42:06;12.30;;;8.30;;
3747;SDS011;1889;50.058;8.688;2022-08-27T00:44:35;9.87;;;8.73;;
3747;SDS011;1889;50.058;8.688;2022-08-27T00:47:06;13.13;;;8.83;;
3747;SDS011;1889;50.058;8.688;2022-08-27T00:49:41;10.80;;;8.67;;
3747;SDS011;1889;50.058;8.688;2022-08-27T00:52:32;10.93;;;8.30;;
3747;SDS011;1889;50.058;8.688;2022-08-27T00:55:06;9.93;;;7.83;;
3747;SDS011;1889;50.058;8.688;2022-08-27T00:58:06;9.13;;;8.20;;
3747;SDS011;1889;50.058;8.688;2022-08-27T01:00:45;13.07;;;8.97;;
3747;SDS011;1889;50.058;8.688;2022-08-27T01:03:14;11.57;;;8.07;;
3747;SDS011;1889;50.058;8.688;2022-08-27T01:05:43;13.60;;;7.87;;
3747;SDS011;1889;50.058;8.688;2022-08-27T01:08:21;9.07;;;8.13;;
3747;SDS011;1889;50.058;8.688;2022-08-27T01:10:46;11.37;;;8.17;;
3747;SDS011;1889;50.058;8.688;2022-08-27T01:13:17;9.67;;;8.40;;
3747;SDS011;1889;50.058;8.688;2022-08-27T01:15:49;10.90;;;7.90;;
3747;SDS011;1889;50.058;8.688;2022-08-27T01:18:19;11.53;;;8.10;;
3747;SDS011;1889;50.058;8.688;2022-08-27T01:20:51;9.10;;;8.20;;
3747;SDS011;1889;50.058;8.688;2022-08-27T01:23:56;10.87;;;8.00;;
3747;SDS011;1889;50.058;8.688;2022-08-27T01:26:31;10.20;;;7.50;;
3747;SDS011;1889;50.058;8.688;2022-08-27T01:29:02;9.93;;;8.00;;
3747;SDS011;1889;50.058;8.688;2022-08-27T01:31:31;12.23;;;7.90;;
3747;SDS011;1889;50.058;8.688;2022-08-27T01:34:03;14.27;;;8.27;;
3747;SDS011;1889;50.058;8.688;2022-08-27T01:36:32;8.37;;;7.23;;
3747;SDS011;1889;50.058;8.688;2022-08-27T01:39:04;9.97;;;8.70;;
3747;SDS011;1889;50.058;8.688;2022-08-27T01:41:34;10.63;;;7.27;;
3747;SDS011;1889;50.058;8.688;2022-08-27T01:44:03;12.53;;;7.80;;
3747;SDS011;1889;50.058;8.688;2022-08-27T01:46:32;9.63;;;8.53;;
3747;SDS011;1889;50.058;8.688;2022-08-27T01:49:02;11.57;;;8.10;;
3747;SDS011;1889;50.058;8.688;2022-08-27T01:51:31;10.77;;;8.57;;
3747;SDS011;1889;50.058;8.688;2022-08-27T01:54:01;14.30;;;7.87;;
3747;SDS011;1889;50.058;8.688;2022-08-27T01:56:30;10.57;;;7.10;;
3747;SDS011;1889;50.058;8.688;2022-08-27T01:58:59;10.93;;;7.07;;
3747;SDS011;1889;50.058;8.688;2022-08-27T02:01:28;7.93;;;7.10;;
3747;SDS011;1889;50.058;8.688;2022-08-27T02:03:57;11.63;;;7.70;;
3747;SDS011;1889;50.058;8.688;2022-08-27T02:06:26;9.63;;;7.00;;
3747;SDS011;1889;50.058;8.688;2022-08-27T02:08:55;12.83;;;7.93;;
3747;SDS011;1889;50.058;8.688;2022-08-27T02:11:24;9.67;;;7.27;;
3747;SDS011;1889;50.058;8.688;2022-08-27T02:13:53;12.43;;;7.03;;
3747;SDS011;1889;50.058;8.688;2022-08-27T02:16:22;10.23;;;7.67;;
3747;SDS011;1889;50.058;8.688;2022-08-27T02:18:51;10.33;;;7.37;;
3747;SDS011;1889;50.058;8.688;2022-08-27T02:21:21;14.23;;;7.90;;
3747;SDS011;1889;50.058;8.688;2022-08-27T02:23:50;10.10;;;7.33;;
3747;SDS011;1889;50.058;8.688;2022-08-27T02:26:21;11.50;;;7.13;;
3747;SDS011;1889;50.058;8.688;2022-08-27T02:28:50;9.33;;;6.77;;
3747;SDS011;1889;50.058;8.688;2022-08-27T02:31:19;9.60;;;6.90;;
3747;SDS011;1889;50.058;8.688;2022-08-27T02:33:48;9.83;;;7.30;;
3747;SDS011;1889;50.058;8.688;2022-08-27T02:36:18;9.80;;;8.30;;
3747;SDS011;1889;50.058;8.688;2022-08-27T02:38:47;13.33;;;7.43;;
3747;SDS011;1889;50.058;8.688;2022-08-27T02:41:17;11.83;;;6.83;;
3747;SDS011;1889;50.058;8.688;2022-08-27T02:43:46;9.40;;;7.67;;
3747;SDS011;1889;50.058;8.688;2022-08-27T02:46:15;10.00;;;7.23;;
3747;SDS011;1889;50.058;8.688;2022-08-27T02:48:44;14.47;;;7.77;;
3747;SDS011;1889;50.058;8.688;2022-08-27T02:51:13;8.67;;;7.33;;
3747;SDS011;1889;50.058;8.688;2022-08-27T02:53:42;10.60;;;7.70;;
3747;SDS011;1889;50.058;8.688;2022-08-27T02:56:12;13.93;;;7.97;;
3747;SDS011;1889;50.058;8.688;2022-08-27T02:58:41;9.90;;;7.07;;
3747;SDS011;1889;50.058;8.688;2022-08-27T03:01:10;11.53;;;6.73;;
3747;SDS011;1889;50.058;8.688;2022-08-27T03:03:39;8.60;;;7.20;;
3747;SDS011;1889;50.058;8.688;2022-08-27T03:06:08;8.63;;;7.00;;
3747;SDS011;1889;50.058;8.688;2022-08-27T03:08:37;9.37;;;7.63;;
3747;SDS011;1889;50.058;8.688;2022-08-27T03:11:06;11.70;;;7.23;;
3747;SDS011;1889;50.058;8.688;2022-08-27T03:13:38;11.93;;;7.87;;
3747;SDS011;1889;50.058;8.688;2022-08-27T03:16:07;8.97;;;7.47;;
3747;SDS011;1889;50.058;8.688;2022-08-27T03:18:37;15.73;;;7.40;;
3747;SDS011;1889;50.058;8.688;2022-08-27T03:21:06;9.27;;;7.20;;
3747;SDS011;1889;50.058;8.688;2022-08-27T03:23:36;12.97;;;7.27;;
3747;SDS011;1889;50.058;8.688;2022-08-27T03:26:08;8.83;;;7.07;;
3747;SDS011;1889;50.058;8.688;2022-08-27T03:28:37;9.70;;;6.87;;
3747;SDS011;1889;50.058;8.688;2022-08-27T03:31:11;8.57;;;6.97;;
3747;SDS011;1889;50.058;8.688;2022-08-27T03:33:39;10.20;;;7.83;;
3747;SDS011;1889;50.058;8.688;2022-08-27T03:36:10;8.80;;;7.90;;
3747;SDS011;1889;50.058;8.688;2022-08-27T03:38:39;8.63;;;7.50;;
3747;SDS011;1889;50.058;8.688;2022-08-27T03:41:09;10.80;;;7.17;;
3747;SDS011;1889;50.058;8.688;2022-08-27T03:43:39;9.40;;;7.20;;
3747;SDS011;1889;50.058;8.688;2022-08-27T03:46:08;8.80;;;8.00;;
3747;SDS011;1889;50.058;8.688;2022-08-27T03:48:38;9.93;;;7.20;;
3747;SDS011;1889;50.058;8.688;2022-08-27T03:51:12;11.30;;;7.43;;
3747;SDS011;1889;50.058;8.688;2022-08-27T03:53:40;8.30;;;7.50;;
3747;SDS011;1889;50.058;8.688;2022-08-27T03:56:13;9.37;;;8.30;;
3747;SDS011;1889;50.058;8.688;2022-08-27T03:58:42;11.33;;;7.70;;
3747;SDS011;1889;50.058;8.688;2022-08-27T04:01:11;11.87;;;8.20;;
3747;SDS011;1889;50.058;8.688;2022-08-27T04:03:40;12.33;;;8.10;;
3747;SDS011;1889;50.058;8.688;2022-08-27T04:06:09;15.43;;;7.80;;
3747;SDS011;1889;50.058;8.688;2022-08-27T04:08:38;9.53;;;7.70;;
3747;SDS011;1889;50.058;8.688;2022-08-27T04:11:07;9.20;;;7.77;;
3747;SDS011;1889;50.058;8.688;2022-08-27T04:13:36;11.37;;;8.10;;
3747;SDS011;1889;50.058;8.688;2022-08-27T04:16:07;12.53;;;8.27;;
3747;SDS011;1889;50.058;8.688;2022-08-27T04:18:36;9.40;;;7.40;;
3747;SDS011;1889;50.058;8.688;2022-08-27T04:21:06;11.27;;;7.63;;
3747;SDS011;1889;50.058;8.688;2022-08-27T04:23:38;10.13;;;8.23;;
3747;SDS011;1889;50.058;8.688;2022-08-27T04:26:08;11.43;;;7.93;;
3747;SDS011;1889;50.058;8.688;2022-08-27T04:28:38;11.07;;;8.10;;
3747;SDS011;1889;50.058;8.688;2022-08-27T04:31:07;10.10;;;7.17;;
3747;SDS011;1889;50.058;8.688;2022-08-27T04:33:37;13.30;;;7.33;;
3747;SDS011;1889;50.058;8.688;2022-08-27T04:36:06;8.73;;;6.77;;
3747;SDS011;1889;50.058;8.688;2022-08-27T04:38:36;8.67;;;7.27;;
3747;SDS011;1889;50.058;8.688;2022-08-27T04:41:06;12.47;;;7.33;;
3747;SDS011;1889;50.058;8.688;2022-08-27T04:43:46;9.67;;;7.17;;
3747;SDS011;1889;50.058;8.688;2022-08-27T04:46:20;12.27;;;7.83;;
3747;SDS011;1889;50.058;8.688;2022-08-27T04:48:51;8.13;;;7.27;;
3747;SDS011;1889;50.058;8.688;2022-08-27T04:51:22;8.30;;;7.27;;
3747;SDS011;1889;50.058;8.688;2022-08-27T04:53:52;14.17;;;7.00;;
3747;SDS011;1889;50.058;8.688;2022-08-27T04:56:22;10.23;;;7.20;;
3747;SDS011;1889;50.058;8.688;2022-08-27T04:58:52;9.87;;;7.33;;
3747;SDS011;1889;50.058;8.688;2022-08-27T05:01:23;10.17;;;7.70;;
3747;SDS011;1889;50.058;8.688;2022-08-27T05:03:53;13.13;;;6.97;;
3747;SDS011;1889;50.058;8.688;2022-08-27T05:06:24;8.83;;;7.33;;
3747;SDS011;1889;50.058;8.688;2022-08-27T05:08:54;7.93;;;7.23;;
3747;SDS011;1889;50.058;8.688;2022-08-27T05:11:23;9.47;;;7.37;;
3747;SDS011;1889;50.058;8.688;2022-08-27T05:13:55;8.93;;;7.10;;
3747;SDS011;1889;50.058;8.688;2022-08-27T05:16:28;8.97;;;6.97;;
3747;SDS011;1889;50.058;8.688;2022-08-27T05:18:57;8.17;;;6.67;;
3747;SDS011;1889;50.058;8.688;2022-08-27T05:21:28;13.60;;;6.90;;
3747;SDS011;1889;50.058;8.688;2022-08-27T05:24:00;11.03;;;7.00;;
3747;SDS011;1889;50.058;8.688;2022-08-27T05:26:32;7.63;;;6.80;;
3747;SDS011;1889;50.058;8.688;2022-08-27T05:29:03;8.90;;;6.90;;
3747;SDS011;1889;50.058;8.688;2022-08-27T05:31:33;8.47;;;7.00;;
3747;SDS011;1889;50.058;8.688;2022-08-27T05:34:02;11.10;;;6.90;;
3747;SDS011;1889;50.058;8.688;2022-08-27T05:36:33;7.13;;;6.40;;
3747;SDS011;1889;50.058;8.688;2022-08-27T05:39:03;10.33;;;7.13;;
3747;SDS011;1889;50.058;8.688;2022-08-27T05:41:33;8.17;;;7.37;;
3747;SDS011;1889;50.058;8.688;2022-08-27T05:44:09;8.10;;;6.90;;
3747;SDS011;1889;50.058;8.688;2022-08-27T05:46:36;9.40;;;7.80;;
3747;SDS011;1889;50.058;8.688;2022-08-27T05:49:06;8.80;;;6.63;;
3747;SDS011;1889;50.058;8.688;2022-08-27T05:51:36;8.70;;;7.20;;
3747;SDS011;1889;50.058;8.688;2022-08-27T05:54:06;10.43;;;8.10;;
3747;SDS011;1889;50.058;8.688;2022-08-27T05:56:39;8.10;;;6.67;;
3747;SDS011;1889;50.058;8.688;2022-08-27T05:59:09;9.17;;;7.07;;
3747;SDS011;1889;50.058;8.688;2022-08-27T06:01:56;9.20;;;6.63;;
3747;SDS011;1889;50.058;8.688;2022-08-27T06:04:25;11.50;;;8.30;;
3747;SDS011;1889;50.058;8.688;2022-08-27T06:06:54;10.93;;;7.00;;
3747;SDS011;1889;50.058;8.688;2022-08-27T06:09:24;9.63;;;7.17;;
3747;SDS011;1889;50.058;8.688;2022-08-27T06:11:57;7.33;;;6.60;;
3747;SDS011;1889;50.058;8.688;2022-08-27T06:14:28;8.00;;;6.90;;
3747;SDS011;1889;50.058;8.688;2022-08-27T06:17:00;13.47;;;6.70;;
3747;SDS011;1889;50.058;8.688;2022-08-27T06:19:31;9.23;;;6.40;;
3747;SDS011;1889;50.058;8.688;2022-08-27T06:22:02;8.17;;;6.90;;
3747;SDS011;1889;50.058;8.688;2022-08-27T06:24:31;10.27;;;7.00;;
3747;SDS011;1889;50.058;8.688;2022-08-27T06:27:00;7.97;;;6.33;;
3747;SDS011;1889;50.058;8.688;2022-08-27T06:29:29;11.57;;;7.37;;
3747;SDS011;1889;50.058;8.688;2022-08-27T06:32:00;8.27;;;6.93;;
3747;SDS011;1889;50.058;8.688;2022-08-27T06:34:29;11.47;;;7.10;;
3747;SDS011;1889;50.058;8.688;2022-08-27T06:36:59;8.83;;;7.37;;
3747;SDS011;1889;50.058;8.688;2022-08-27T06:39:28;9.00;;;7.23;;
3747;SDS011;1889;50.058;8.688;2022-08-27T06:41:57;12.20;;;7.03;;
3747;SDS011;1889;50.058;8.688;2022-08-27T06:44:27;9.37;;;7.20;;
3747;SDS011;1889;50.058;8.688;2022-08-27T06:46:56;9.03;;;7.80;;
3747;SDS011;1889;50.058;8.688;2022-08-27T06:49:25;9.80;;;6.50;;
3747;SDS011;1889;50.058;8.688;2022-08-27T06:51:54;9.37;;;7.67;;
3747;SDS011;1889;50.058;8.688;2022-08-27T06:54:23;8.47;;;6.90;;
3747;SDS011;1889;50.058;8.688;2022-08-27T06:56:52;9.37;;;7.27;;
3747;SDS011;1889;50.058;8.688;2022-08-27T06:59:23;10.47;;;7.13;;
3747;SDS011;1889;50.058;8.688;2022-08-27T07:01:52;8.60;;;7.00;;
3747;SDS011;1889;50.058;8.688;2022-08-27T07:04:22;9.20;;;6.93;;
3747;SDS011;1889;50.058;8.688;2022-08-27T07:06:52;9.27;;;7.33;;
3747;SDS011;1889;50.058;8.688;2022-08-27T07:09:21;10.07;;;7.17;;
3747;SDS011;1889;50.058;8.688;2022-08-27T07:11:51;10.77;;;6.87;;
3747;SDS011;1889;50.058;8.688;2022-08-27T07:14:21;9.43;;;6.17;;
3747;SDS011;1889;50.058;8.688;2022-08-27T07:16:50;8.73;;;6.37;;
3747;SDS011;1889;50.058;8.688;2022-08-27T07:19:19;7.60;;;6.70;;
3747;SDS011;1889;50.058;8.688;2022-08-27T07:21:48;8.20;;;6.93;;
3747;SDS011;1889;50.058;8.688;2022-08-27T07:24:17;7.27;;;6.47;;
3747;SDS011;1889;50.058;8.688;2022-08-27T07:26:46;10.50;;;6.47;;
3747;SDS011;1889;50.058;8.688;2022-08-27T07:29:15;7.07;;;6.33;;
3747;SDS011;1889;50.058;8.688;2022-08-27T07:31:44;9.70;;;6.53;;
3747;SDS011;1889;50.058;8.688;2022-08-27T07:34:13;7.03;;;6.30;;
3747;SDS011;1889;50.058;8.688;2022-08-27T07:36:42;8.07;;;6.23;;
3747;SDS011;1889;50.058;8.688;2022-08-27T07:39:11;14.07;;;6.60;;
3747;SDS011;1889;50.058;8.688;2022-08-27T07:41:42;9.23;;;5.87;;
3747;SDS011;1889;50.058;8.688;2022-08-27T07:44:28;9.50;;;5.90;;
3747;SDS011;1889;50.058;8.688;2022-08-27T07:46:57;9.40;;;6.10;;
3747;SDS011;1889;50.058;8.688;2022-08-27T07:49:26;7.73;;;6.73;;
3747;SDS011;1889;50.058;8.688;2022-08-27T07:51:57;7.40;;;5.67;;
3747;SDS011;1889;50.058;8.688;2022-08-27T07:54:26;6.37;;;5.70;;
3747;SDS011;1889;50.058;8.688;2022-08-27T07:56:55;7.23;;;5.93;;
3747;SDS011;1889;50.058;8.688;2022-08-27T07:59:25;7.77;;;6.03;;
3747;SDS011;1889;50.058;8.688;2022-08-27T08:01:54;6.63;;;5.60;;
3747;SDS011;1889;50.058;8.688;2022-08-27T08:04:23;9.13;;;6.37;;
3747;SDS011;1889;50.058;8.688;2022-08-27T08:06:53;8.10;;;5.70;;
3747;SDS011;1889;50.058;8.688;2022-08-27T08:09:22;6.50;;;5.87;;
3747;SDS011;1889;50.058;8.688;2022-08-27T08:11:52;6.30;;;5.00;;
3747;SDS011;1889;50.058;8.688;2022-08-27T08:14:21;8.90;;;4.93;;
3747;SDS011;1889;50.058;8.688;2022-08-27T08:16:51;5.83;;;5.20;;
3747;SDS011;1889;50.058;8.688;2022-08-27T08:19:20;7.63;;;6.07;;
3747;SDS011;1889;50.058;8.688;2022-08-27T08:21:49;6.13;;;5.13;;
3747;SDS011;1889;50.058;8.688;2022-08-27T08:24:19;11.03;;;5.37;;
3747;SDS011;1889;50.058;8.688;2022-08-27T08:26:48;6.50;;;4.87;;
3747;SDS011;1889;50.058;8.688;2022-08-27T08:29:17;5.40;;;4.90;;
3747;SDS011;1889;50.058;8.688;2022-08-27T08:31:46;5.20;;;4.73;;
3747;SDS011;1889;50.058;8.688;2022-08-27T08:34:15;6.17;;;4.80;;
3747;SDS011;1889;50.058;8.688;2022-08-27T08:36:46;4.77;;;4.37;;
3747;SDS011;1889;50.058;8.688;2022-08-27T08:39:17;9.73;;;5.70;;
3747;SDS011;1889;50.058;8.688;2022-08-27T08:41:50;5.27;;;4.80;;
3747;SDS011;1889;50.058;8.688;2022-08-27T08:44:39;6.70;;;4.87;;
3747;SDS011;1889;50.058;8.688;2022-08-27T08:47:07;6.23;;;5.20;;
3747;SDS011;1889;50.058;8.688;2022-08-27T08:49:57;6.10;;;4.87;;
3747;SDS011;1889;50.058;8.688;2022-08-27T08:58:06;6.47;;;5.00;;
3747;SDS011;1889;50.058;8.688;2022-08-27T09:00:44;5.17;;;4.43;;
3747;SDS011;1889;50.058;8.688;2022-08-27T09:03:15;5.97;;;4.70;;
3747;SDS011;1889;50.058;8.688;2022-08-27T09:05:50;7.10;;;5.60;;
3747;SDS011;1889;50.058;8.688;2022-08-27T09:08:28;7.00;;;5.47;;
3747;SDS011;1889;50.058;8.688;2022-08-27T09:11:43;5.67;;;5.17;;
3747;SDS011;1889;50.058;8.688;2022-08-27T09:13:48;5.67;;;4.73;;
3747;SDS011;1889;50.058;8.688;2022-08-27T09:16:28;6.83;;;5.17;;
3747;SDS011;1889;50.058;8.688;2022-08-27T09:19:00;4.63;;;4.23;;
3747;SDS011;1889;50.058;8.688;2022-08-27T09:21:35;4.90;;;4.50;;
3747;SDS011;1889;50.058;8.688;2022-08-27T09:27:04;5.47;;;4.67;;
3747;SDS011;1889;50.058;8.688;2022-08-27T09:29:35;4.67;;;4.20;;
3747;SDS011;1889;50.058;8.688;2022-08-27T09:32:07;5.83;;;4.30;;
3747;SDS011;1889;50.058;8.688;2022-08-27T09:34:40;6.10;;;3.90;;
3747;SDS011;1889;50.058;8.688;2022-08-27T09:37:16;5.90;;;4.37;;
3747;SDS011;1889;50.058;8.688;2022-08-27T09:40:06;5.10;;;4.33;;
3747;SDS011;1889;50.058;8.688;2022-08-27T09:42:39;4.77;;;4.37;;
3747;SDS011;1889;50.058;8.688;2022-08-27T09:45:11;4.60;;;4.27;;
3747;SDS011;1889;50.058;8.688;2022-08-27T09:47:44;6.90;;;4.20;;
3747;SDS011;1889;50.058;8.688;2022-08-27T09:50:16;5.70;;;4.50;;
3747;SDS011;1889;50.058;8.688;2022-08-27T09:52:49;4.43;;;4.03;;
3747;SDS011;1889;50.058;8.688;2022-08-27T09:58:14;4.27;;;3.90;;
3747;SDS011;1889;50.058;8.688;2022-08-27T10:00:47;4.77;;;3.80;;
3747;SDS011;1889;50.058;8.688;2022-08-27T10:03:18;3.97;;;3.67;;
3747;SDS011;1889;50.058;8.688;2022-08-27T10:05:49;4.33;;;3.80;;
3747;SDS011;1889;50.058;8.688;2022-08-27T10:08:26;4.30;;;3.90;;
3747;SDS011;1889;50.058;8.688;2022-08-27T10:13:36;5.77;;;3.97;;
3747;SDS011;1889;50.058;8.688;2022-08-27T10:16:24;4.00;;;3.53;;
3747;SDS011;1889;50.058;8.688;2022-08-27T10:19:29;4.13;;;3.70;;
3747;SDS011;1889;50.058;8.688;2022-08-27T10:22:12;4.40;;;3.57;;
3747;SDS011;1889;50.058;8.688;2022-08-27T10:27:48;4.30;;;3.90;;
3747;SDS011;1889;50.058;8.688;2022-08-27T10:30:37;4.53;;;3.63;;
3747;SDS011;1889;50.058;8.688;2022-08-27T10:35:46;3.83;;;3.40;;
3747;SDS011;1889;50.058;8.688;2022-08-27T10:39:18;4.00;;;3.60;;
3747;SDS011;1889;50.058;8.688;2022-08-27T10:41:06;4.23;;;3.30;;
3747;SDS011;1889;50.058;8.688;2022-08-27T10:46:30;4.80;;;4.10;;
3747;SDS011;1889;50.058;8.688;2022-08-27T10:49:35;4.37;;;3.43;;
3747;SDS011;1889;50.058;8.688;2022-08-27T10:55:02;5.90;;;3.67;;
3747;SDS011;1889;50.058;8.688;2022-08-27T11:06:27;4.77;;;3.70;;
3747;SDS011;1889;50.058;8.688;2022-08-27T11:09:16;9.27;;;3.73;;
3747;SDS011;1889;50.058;8.688;2022-08-27T11:11:53;5.20;;;3.33;;
3747;SDS011;1889;50.058;8.688;2022-08-27T11:14:28;7.10;;;3.97;;
3747;SDS011;1889;50.058;8.688;2022-08-27T11:17:08;4.23;;;3.07;;
3747;SDS011;1889;50.058;8.688;2022-08-27T11:19:44;8.77;;;3.50;;
3747;SDS011;1889;50.058;8.688;2022-08-27T11:22:41;4.33;;;3.80;;
3747;SDS011;1889;50.058;8.688;2022-08-27T11:28:07;5.10;;;4.60;;
3747;SDS011;1889;50.058;8.688;2022-08-27T11:36:07;5.10;;;3.57;;
3747;SDS011;1889;50.058;8.688;2022-08-27T11:39:04;6.23;;;3.83;;
3747;SDS011;1889;50.058;8.688;2022-08-27T11:44:29;4.60;;;4.20;;
3747;SDS011;1889;50.058;8.688;2022-08-27T11:47:07;5.13;;;4.00;;
3747;SDS011;1889;50.058;8.688;2022-08-27T11:49:54;4.20;;;3.90;;
3747;SDS011;1889;50.058;8.688;2022-08-27T11:58:07;6.17;;;4.23;;
3747;SDS011;1889;50.058;8.688;2022-08-27T12:00:47;4.37;;;3.97;;
3747;SDS011;1889;50.058;8.688;2022-08-27T12:08:30;6.87;;;4.53;;
3747;SDS011;1889;50.058;8.688;2022-08-27T12:13:54;6.30;;;4.70;;
3747;SDS011;1889;50.058;8.688;2022-08-27T12:22:20;6.60;;;4.40;;
3747;SDS011;1889;50.058;8.688;2022-08-27T12:25:05;7.07;;;5.00;;
3747;SDS011;1889;50.058;8.688;2022-08-27T12:27:34;4.90;;;4.33;;
3747;SDS011;1889;50.058;8.688;2022-08-27T12:30:21;6.87;;;5.23;;
3747;SDS011;1889;50.058;8.688;2022-08-27T12:32:51;4.57;;;4.13;;
3747;SDS011;1889;50.058;8.688;2022-08-27T12:40:49;5.10;;;3.97;;
3747;SDS011;1889;50.058;8.688;2022-08-27T12:43:24;5.50;;;4.40;;
3747;SDS011;1889;50.058;8.688;2022-08-27T12:45:58;5.10;;;4.57;;
3747;SDS011;1889;50.058;8.688;2022-08-27T12:48:36;8.20;;;4.30;;
3747;SDS011;1889;50.058;8.688;2022-08-27T12:51:21;7.07;;;5.10;;
3747;SDS011;1889;50.058;8.688;2022-08-27T12:54:04;5.30;;;4.80;;
3747;SDS011;1889;50.058;8.688;2022-08-27T12:56:43;4.57;;;4.17;;
3747;SDS011;1889;50.058;8.688;2022-08-27T12:59:22;4.83;;;4.17;;
3747;SDS011;1889;50.058;8.688;2022-08-27T13:04:38;4.13;;;3.83;;
3747;SDS011;1889;50.058;8.688;2022-08-27T13:07:09;4.70;;;3.77;;
3747;SDS011;1889;50.058;8.688;2022-08-27T13:09:39;4.90;;;3.97;;
3747;SDS011;1889;50.058;8.688;2022-08-27T13:12:14;5.50;;;4.23;;
3747;SDS011;1889;50.058;8.688;2022-08-27T13:14:45;4.30;;;3.90;;
3747;SDS011;1889;50.058;8.688;2022-08-27T13:17:15;4.57;;;4.23;;
3747;SDS011;1889;50.058;8.688;2022-08-27T13:19:47;5.33;;;4.00;;
3747;SDS011;1889;50.058;8.688;2022-08-27T13:22:23;4.40;;;4.00;;
3747;SDS011;1889;50.058;8.688;2022-08-27T13:24:54;4.40;;;4.00;;
3747;SDS011;1889;50.058;8.688;2022-08-27T13:27:29;4.10;;;3.70;;
3747;SDS011;1889;50.058;8.688;2022-08-27T13:30:07;6.30;;;3.90;;
3747;SDS011;1889;50.058;8.688;2022-08-27T13:32:38;4.70;;;4.30;;
3747;SDS011;1889;50.058;8.688;2022-08-27T13:35:08;5.37;;;4.53;;
3747;SDS011;1889;50.058;8.688;2022-08-27T13:37:40;5.03;;;4.13;;
3747;SDS011;1889;50.058;8.688;2022-08-27T13:43:04;4.40;;;4.00;;
3747;SDS011;1889;50.058;8.688;2022-08-27T13:45:39;5.37;;;4.20;;
3747;SDS011;1889;50.058;8.688;2022-08-27T13:48:10;6.97;;;4.33;;
3747;SDS011;1889;50.058;8.688;2022-08-27T13:50:46;6.63;;;4.33;;
3747;SDS011;1889;50.058;8.688;2022-08-27T13:53:26;4.03;;;3.73;;
3747;SDS011;1889;50.058;8.688;2022-08-27T13:56:28;5.37;;;4.07;;
3747;SDS011;1889;50.058;8.688;2022-08-27T13:58:53;4.57;;;4.10;;
3747;SDS011;1889;50.058;8.688;2022-08-27T14:01:24;4.80;;;4.30;;
3747;SDS011;1889;50.058;8.688;2022-08-27T14:03:56;5.13;;;3.97;;
3747;SDS011;1889;50.058;8.688;2022-08-27T14:06:37;5.33;;;4.87;;
3747;SDS011;1889;50.058;8.688;2022-08-27T14:09:14;5.10;;;4.60;;
3747;SDS011;1889;50.058;8.688;2022-08-27T14:12:02;5.20;;;4.73;;
3747;SDS011;1889;50.058;8.688;2022-08-27T14:14:29;4.90;;;4.50;;
3747;SDS011;1889;50.058;8.688;2022-08-27T14:17:01;6.77;;;4.23;;
3747;SDS011;1889;50.058;8.688;2022-08-27T14:19:32;8.13;;;4.43;;
3747;SDS011;1889;50.058;8.688;2022-08-27T14:22:01;4.67;;;3.87;;
3747;SDS011;1889;50.058;8.688;2022-08-27T14:24:31;4.67;;;4.27;;
3747;SDS011;1889;50.058;8.688;2022-08-27T14:27:04;5.80;;;4.50;;
3747;SDS011;1889;50.058;8.688;2022-08-27T14:29:35;4.60;;;3.90;;
3747;SDS011;1889;50.058;8.688;2022-08-27T14:32:05;4.50;;;4.10;;
3747;SDS011;1889;50.058;8.688;2022-08-27T14:34:34;4.73;;;3.87;;
3747;SDS011;1889;50.058;8.688;2022-08-27T14:37:03;4.57;;;4.17;;
3747;SDS011;1889;50.058;8.688;2022-08-27T14:39:39;7.20;;;5.00;;
3747;SDS011;1889;50.058;8.688;2022-08-27T14:42:05;6.57;;;4.77;;
3747;SDS011;1889;50.058;8.688;2022-08-27T14:44:35;4.40;;;4.00;;
3747;SDS011;1889;50.058;8.688;2022-08-27T14:47:04;4.70;;;4.27;;
3747;SDS011;1889;50.058;8.688;2022-08-27T14:49:35;4.90;;;4.47;;
3747;SDS011;1889;50.058;8.688;2022-08-27T14:52:07;6.77;;;4.47;;
3747;SDS011;1889;50.058;8.688;2022-08-27T14:54:36;4.50;;;4.10;;
3747;SDS011;1889;50.058;8.688;2022-08-27T14:57:06;4.87;;;4.47;;
3747;SDS011;1889;50.058;8.688;2022-08-27T14:59:36;5.53;;;4.20;;
3747;SDS011;1889;50.058;8.688;2022-08-27T15:02:09;5.63;;;4.53;;
3747;SDS011;1889;50.058;8.688;2022-08-27T15:04:37;4.93;;;4.60;;
3747;SDS011;1889;50.058;8.688;2022-08-27T15:07:07;5.50;;;4.67;;
3747;SDS011;1889;50.058;8.688;2022-08-27T15:09:36;4.23;;;3.93;;
3747;SDS011;1889;50.058;8.688;2022-08-27T15:12:05;5.37;;;4.33;;
3747;SDS011;1889;50.058;8.688;2022-08-27T15:14:35;4.67;;;4.07;;
3747;SDS011;1889;50.058;8.688;2022-08-27T15:17:05;6.97;;;4.50;;
3747;SDS011;1889;50.058;8.688;2022-08-27T15:19:34;4.53;;;4.17;;
3747;SDS011;1889;50.058;8.688;2022-08-27T15:22:12;5.57;;;4.27;;
3747;SDS011;1889;50.058;8.688;2022-08-27T15:24:42;6.40;;;4.60;;
3747;SDS011;1889;50.058;8.688;2022-08-27T15:27:13;5.20;;;4.53;;
3747;SDS011;1889;50.058;8.688;2022-08-27T15:29:42;4.97;;;4.50;;
3747;SDS011;1889;50.058;8.688;2022-08-27T15:32:24;5.63;;;4.40;;
3747;SDS011;1889;50.058;8.688;2022-08-27T15:34:48;4.83;;;4.20;;
3747;SDS011;1889;50.058;8.688;2022-08-27T15:37:17;5.53;;;5.03;;
3747;SDS011;1889;50.058;8.688;2022-08-27T15:39:46;8.20;;;4.90;;
3747;SDS011;1889;50.058;8.688;2022-08-27T15:42:15;4.70;;;4.20;;
3747;SDS011;1889;50.058;8.688;2022-08-27T15:44:47;4.93;;;4.43;;
3747;SDS011;1889;50.058;8.688;2022-08-27T15:47:17;6.23;;;4.50;;
3747;SDS011;1889;50.058;8.688;2022-08-27T15:49:46;4.47;;;4.07;;
3747;SDS011;1889;50.058;8.688;2022-08-27T15:52:16;6.10;;;4.47;;
3747;SDS011;1889;50.058;8.688;2022-08-27T15:54:48;5.03;;;4.50;;
3747;SDS011;1889;50.058;8.688;2022-08-27T15:57:18;5.10;;;4.60;;
3747;SDS011;1889;50.058;8.688;2022-08-27T15:59:48;4.50;;;4.10;;
3747;SDS011;1889;50.058;8.688;2022-08-27T16:02:18;5.27;;;4.63;;
3747;SDS011;1889;50.058;8.688;2022-08-27T16:04:50;5.27;;;4.77;;
3747;SDS011;1889;50.058;8.688;2022-08-27T16:07:20;6.67;;;4.87;;
3747;SDS011;1889;50.058;8.688;2022-08-27T16:09:50;6.40;;;4.20;;
3747;SDS011;1889;50.058;8.688;2022-08-27T16:12:19;5.43;;;4.83;;
3747;SDS011;1889;50.058;8.688;2022-08-27T16:14:49;4.83;;;4.43;;
3747;SDS011;1889;50.058;8.688;2022-08-27T16:17:18;5.00;;;4.50;;
3747;SDS011;1889;50.058;8.688;2022-08-27T16:19:47;5.00;;;4.03;;
3747;SDS011;1889;50.058;8.688;2022-08-27T16:22:16;5.37;;;4.70;;
3747;SDS011;1889;50.058;8.688;2022-08-27T16:24:45;6.80;;;4.17;;
3747;SDS011;1889;50.058;8.688;2022-08-27T16:27:15;5.30;;;3.77;;
3747;SDS011;1889;50.058;8.688;2022-08-27T16:29:44;5.53;;;4.90;;
3747;SDS011;1889;50.058;8.688;2022-08-27T16:32:14;4.53;;;3.90;;
3747;SDS011;1889;50.058;8.688;2022-08-27T16:34:45;5.63;;;4.40;;
3747;SDS011;1889;50.058;8.688;2022-08-27T16:37:14;6.43;;;4.37;;
3747;SDS011;1889;50.058;8.688;2022-08-27T16:39:44;4.23;;;3.87;;
3747;SDS011;1889;50.058;8.688;2022-08-27T16:42:13;5.17;;;4.73;;
3747;SDS011;1889;50.058;8.688;2022-08-27T16:44:42;4.67;;;3.70;;
3747;SDS011;1889;50.058;8.688;2022-08-27T16:47:11;6.10;;;4.17;;
3747;SDS011;1889;50.058;8.688;2022-08-27T16:49:40;3.87;;;3.57;;
3747;SDS011;1889;50.058;8.688;2022-08-27T16:52:27;3.87;;;3.57;;
3747;SDS011;1889;50.058;8.688;2022-08-27T16:54:57;3.83;;;3.57;;
3747;SDS011;1889;50.058;8.688;2022-08-27T16:57:26;5.17;;;3.83;;
3747;SDS011;1889;50.058;8.688;2022-08-27T16:59:55;3.90;;;3.60;;